Time;durP1;ratioP1;P1;durP2;ratioP2;P2;SDS_P1;SDS_P2;PMS_P1;PMS_P2;Temp;Humidity;BMP_temperature;BMP_pressure;BME280_temperature;BME280_humidity;BME280_pressure;Samples;Min_cycle;Max_cycle;Signal;HPM_P1;HPM_P2
2021/06/20 00:01:28;;;;;;;14.25;6.75;;;;;;;25.30;43.46;100412.96;1731566;80;26712;-64
2021/06/20 00:03:54;;;;;;;13.70;6.40;;;;;;;25.28;43.57;100412.27;1700676;80;26487;-64
2021/06/20 00:06:34;;;;;;;15.05;6.20;;;;;;;25.14;43.71;100387.70;1712846;80;25767;-63
2021/06/20 00:09:12;;;;;;;10.82;5.87;;;;;;;25.21;43.80;100408.82;1724165;80;28184;-65
2021/06/20 00:11:45;;;;;;;13.58;6.47;;;;;;;25.16;43.91;100406.23;1735585;80;26566;-62
2021/06/20 00:14:11;;;;;;;13.20;6.47;;;;;;;25.07;44.06;100405.34;1725360;80;25836;-64
2021/06/20 00:16:38;;;;;;;7.85;6.37;;;;;;;25.07;44.06;100405.34;1739210;80;26421;-64
2021/06/20 00:19:06;;;;;;;8.93;6.42;;;;;;;24.99;44.18;100408.05;1738641;80;25775;-61
2021/06/20 00:21:33;;;;;;;11.12;6.70;;;;;;;24.99;44.18;100408.05;1715913;81;27457;-64
2021/06/20 00:23:59;;;;;;;7.78;6.37;;;;;;;24.97;44.67;100414.72;1736873;80;25787;-64
2021/06/20 00:26:25;;;;;;;9.75;6.15;;;;;;;24.96;44.80;100415.72;1722363;80;25786;-63
2021/06/20 00:28:51;;;;;;;12.95;7.08;;;;;;;24.80;44.78;100392.69;1733026;80;25727;-64
2021/06/20 00:31:20;;;;;;;8.33;6.70;;;;;;;24.92;45.01;100413.81;1729016;80;26215;-64
2021/06/20 00:33:45;;;;;;;7.80;6.47;;;;;;;24.87;44.91;100410.20;1735967;80;27442;-63
2021/06/20 00:36:12;;;;;;;10.05;6.37;;;;;;;24.87;44.91;100410.20;1720025;80;25774;-63
2021/06/20 00:38:39;;;;;;;11.20;7.05;;;;;;;24.84;45.33;100400.93;1723749;80;25907;-64
2021/06/20 00:41:06;;;;;;;9.63;5.60;;;;;;;24.82;45.42;100398.86;1725976;80;26135;-64
2021/06/20 00:43:32;;;;;;;13.40;6.22;;;;;;;24.81;45.49;100395.77;1740351;80;26055;-64
2021/06/20 00:45:59;;;;;;;8.08;6.12;;;;;;;24.79;45.58;100391.48;1723191;80;29559;-64
2021/06/20 00:48:25;;;;;;;11.45;6.20;;;;;;;24.76;45.70;100389.92;1722557;80;25765;-64
2021/06/20 00:50:50;;;;;;;15.10;6.87;;;;;;;24.75;45.79;100393.69;1734012;80;25836;-64
2021/06/20 00:53:17;;;;;;;12.18;8.30;;;;;;;24.73;45.91;100388.02;1730704;80;26028;-63
2021/06/20 00:55:44;;;;;;;11.43;6.85;;;;;;;24.70;45.95;100386.47;1731655;80;25811;-62
2021/06/20 00:58:12;;;;;;;9.20;7.50;;;;;;;24.62;46.10;100379.58;1732692;80;27502;-64
2021/06/20 01:00:38;;;;;;;14.07;7.00;;;;;;;24.58;46.24;100379.05;1735072;80;25696;-62
2021/06/20 01:03:07;;;;;;;15.72;6.92;;;;;;;24.56;46.33;100373.38;1732569;80;25795;-62
2021/06/20 01:05:35;;;;;;;11.53;6.72;;;;;;;24.53;46.44;100375.93;1706617;80;26467;-62
2021/06/20 01:08:01;;;;;;;12.43;6.20;;;;;;;24.53;46.53;100375.93;1721882;80;25747;-62
2021/06/20 01:10:35;;;;;;;11.70;6.50;;;;;;;24.51;46.63;100373.00;1702717;80;27432;-62
2021/06/20 01:12:58;;;;;;;9.68;6.67;;;;;;;24.48;46.74;100371.45;1694083;82;25881;-62
2021/06/20 01:15:29;;;;;;;7.45;6.30;;;;;;;24.47;46.80;100368.87;1722517;80;25789;-62
2021/06/20 01:17:55;;;;;;;10.38;6.33;;;;;;;24.45;46.88;100375.88;1720594;80;25784;-62
2021/06/20 01:20:21;;;;;;;12.50;6.50;;;;;;;24.40;46.93;100368.66;1725270;80;25750;-62
2021/06/20 01:22:51;;;;;;;8.60;6.72;;;;;;;24.38;47.06;100373.95;1724565;80;27380;-62
2021/06/20 01:25:22;;;;;;;7.37;6.37;;;;;;;24.33;47.17;100365.36;1707323;80;25898;-62
2021/06/20 01:27:58;;;;;;;10.32;6.65;;;;;;;24.28;47.31;100366.70;1734702;80;25792;-62
2021/06/20 01:30:30;;;;;;;11.73;6.60;;;;;;;24.27;47.44;100361.39;1720777;80;25786;-62
2021/06/20 01:32:59;;;;;;;9.05;6.30;;;;;;;24.26;47.53;100361.90;1721758;80;25755;-62
2021/06/20 01:35:26;;;;;;;11.50;6.37;;;;;;;24.25;47.58;100360.66;1731671;80;27268;-62
2021/06/20 01:37:54;;;;;;;9.05;6.37;;;;;;;24.22;47.65;100363.21;1733882;80;25930;-62
2021/06/20 01:40:23;;;;;;;9.20;6.47;;;;;;;24.20;47.74;100361.14;1727980;80;25960;-61
2021/06/20 01:42:52;;;;;;;8.65;6.12;;;;;;;24.19;47.80;100361.30;1728208;80;25815;-62
2021/06/20 01:45:22;;;;;;;10.18;6.92;;;;;;;24.15;47.91;100358.53;1719900;80;26007;-62
2021/06/20 01:47:51;;;;;;;11.73;6.05;;;;;;;24.12;48.00;100356.98;1732659;80;27650;-62
2021/06/20 01:50:18;;;;;;;9.28;6.80;;;;;;;24.11;48.07;100355.77;1726553;80;25941;-62
2021/06/20 01:52:47;;;;;;;9.48;6.58;;;;;;;24.07;48.20;100359.34;1733051;80;25856;-62
2021/06/20 01:55:16;;;;;;;8.18;6.60;;;;;;;24.05;48.26;100358.64;1730568;80;26528;-62
2021/06/20 01:57:45;;;;;;;12.55;7.08;;;;;;;24.03;48.29;100352.97;1716954;80;25988;-62
2021/06/20 02:00:14;;;;;;;16.07;6.65;;;;;;;23.99;48.40;100355.68;1721838;80;27420;-62
2021/06/20 02:02:40;;;;;;;16.00;7.53;;;;;;;23.81;48.32;100331.08;1723109;80;26638;-62
2021/06/20 02:05:09;;;;;;;12.23;6.58;;;;;;;23.81;48.32;100331.08;1740135;80;25820;-62
2021/06/20 02:07:38;;;;;;;9.55;6.45;;;;;;;23.92;48.65;100359.56;1730836;80;26361;-62
2021/06/20 02:10:12;;;;;;;12.53;6.53;;;;;;;23.89;48.70;100351.67;1723962;80;25700;-62
2021/06/20 02:12:40;;;;;;;10.18;7.00;;;;;;;23.86;48.80;100356.09;1734922;80;27379;-62
2021/06/20 02:15:13;;;;;;;11.50;7.33;;;;;;;23.83;48.87;100359.15;1726028;80;25715;-62
2021/06/20 02:17:39;;;;;;;9.63;6.17;;;;;;;23.76;48.99;100356.70;1727864;80;25806;-62
2021/06/20 02:20:18;;;;;;;9.48;7.53;;;;;;;23.72;49.12;100356.66;1734033;80;26449;-62
2021/06/20 02:22:48;;;;;;;11.05;7.45;;;;;;;23.68;49.24;100343.80;1727189;80;25752;-62
2021/06/20 02:25:15;;;;;;;11.33;7.20;;;;;;;23.66;49.34;100349.94;1738798;80;27433;-62
2021/06/20 02:27:46;;;;;;;10.60;7.17;;;;;;;23.63;49.46;100350.26;1723719;80;44209;-62
2021/06/20 02:30:15;;;;;;;12.13;7.30;;;;;;;23.59;49.50;100344.75;1730520;80;25735;-62
2021/06/20 02:32:42;;;;;;;9.58;7.05;;;;;;;23.54;49.67;100341.63;1684068;82;25774;-62
2021/06/20 02:35:11;;;;;;;11.53;7.60;;;;;;;23.51;49.80;100338.66;1730661;80;25826;-62
2021/06/20 02:37:40;;;;;;;14.18;7.95;;;;;;;23.46;49.91;100334.17;1737116;80;28258;-62
2021/06/20 02:40:10;;;;;;;10.43;7.30;;;;;;;23.43;50.05;100331.74;1735331;80;25763;-62
2021/06/20 02:42:37;;;;;;;9.60;7.60;;;;;;;23.41;50.18;100338.39;1723656;80;25854;-62
2021/06/20 02:45:07;;;;;;;11.97;7.75;;;;;;;23.39;50.24;100336.34;1735964;80;26455;-62
2021/06/20 02:47:34;;;;;;;16.52;7.08;;;;;;;23.36;50.36;100348.46;1731000;80;25718;-62
2021/06/20 02:50:00;;;;;;;10.70;6.95;;;;;;;23.35;50.47;100344.52;1736783;80;29535;-63
2021/06/20 02:52:28;;;;;;;14.28;7.20;;;;;;;23.34;50.58;100340.06;1735571;80;25823;-64
2021/06/20 02:54:55;;;;;;;8.58;7.30;;;;;;;23.33;50.70;100336.47;1739170;80;25775;-62
2021/06/20 02:57:24;;;;;;;13.78;7.95;;;;;;;23.31;50.73;100341.23;1726388;80;26325;-62
2021/06/20 02:59:53;;;;;;;14.28;7.97;;;;;;;23.31;50.85;100330.30;1736374;80;25748;-62
2021/06/20 03:02:20;;;;;;;10.82;7.60;;;;;;;23.32;50.91;100333.38;1729486;80;28187;-62
2021/06/20 03:04:48;;;;;;;11.97;7.87;;;;;;;23.30;50.96;100324.47;1723264;80;26469;-64
2021/06/20 03:07:17;;;;;;;11.38;7.87;;;;;;;23.29;51.07;100324.98;1702183;80;26571;-62
2021/06/20 03:09:44;;;;;;;7.60;6.80;;;;;;;23.29;51.10;100321.38;1737501;79;25709;-64
2021/06/20 03:12:13;;;;;;;10.68;7.58;;;;;;;23.31;51.20;100319.35;1735492;80;26624;-63
2021/06/20 03:14:43;;;;;;;7.53;6.72;;;;;;;23.29;51.26;100318.65;1736490;80;25767;-63
2021/06/20 03:17:10;;;;;;;11.77;7.53;;;;;;;23.29;51.34;100317.28;1743315;80;26555;-63
2021/06/20 03:19:38;;;;;;;11.38;7.28;;;;;;;23.27;51.40;100312.48;1739120;80;26176;-63
2021/06/20 03:22:05;;;;;;;9.83;7.40;;;;;;;23.21;51.46;100306.27;1739064;80;25781;-63
2021/06/20 03:24:36;;;;;;;11.38;7.28;;;;;;;23.24;51.59;100305.95;1736497;80;25825;-63
2021/06/20 03:27:03;;;;;;;14.75;8.35;;;;;;;23.22;51.64;100306.11;1736156;80;27422;-63
2021/06/20 03:29:29;;;;;;;10.03;7.58;;;;;;;23.22;51.71;100301.14;1734102;80;25830;-63
2021/06/20 03:31:57;;;;;;;12.45;7.95;;;;;;;23.20;51.80;100296.34;1730903;80;25783;-64
2021/06/20 03:34:23;;;;;;;13.32;8.63;;;;;;;23.19;51.88;100302.31;1738354;80;26422;-64
2021/06/20 03:36:52;;;;;;;9.73;8.33;;;;;;;23.18;51.94;100299.23;1731775;80;25832;-64
2021/06/20 03:39:17;;;;;;;11.83;7.53;;;;;;;23.15;52.05;100300.05;1710906;82;28222;-63
2021/06/20 03:41:47;;;;;;;12.58;8.53;;;;;;;23.13;52.17;100299.34;1719763;82;26590;-63
2021/06/20 03:44:12;;;;;;;19.75;9.05;;;;;;;23.13;52.25;100313.02;1700869;81;25760;-64
2021/06/20 03:46:40;;;;;;;11.65;8.38;;;;;;;23.11;52.35;100321.38;1724691;82;25804;-63
2021/06/20 03:49:07;;;;;;;13.53;9.00;;;;;;;23.10;52.44;100322.89;1727669;81;25659;-63
2021/06/20 03:51:34;;;;;;;13.88;8.53;;;;;;;23.11;52.53;100323.25;1727784;82;27503;-64
2021/06/20 03:54:01;;;;;;;13.43;8.80;;;;;;;23.15;52.68;100326.02;1734818;81;26263;-63
2021/06/20 03:56:29;;;;;;;11.90;8.75;;;;;;;23.13;52.64;100341.22;1728015;81;25723;-63
2021/06/20 03:58:57;;;;;;;16.00;9.43;;;;;;;23.12;52.82;100344.96;1725726;81;25793;-63
2021/06/20 04:01:25;;;;;;;10.23;8.88;;;;;;;23.18;52.87;100347.59;1727956;81;25846;-64
2021/06/20 04:03:51;;;;;;;13.90;9.93;;;;;;;23.20;52.94;100349.16;1735640;81;27397;-63
2021/06/20 04:06:17;;;;;;;12.18;9.30;;;;;;;23.24;53.00;100349.70;1726631;81;27223;-63
2021/06/20 04:08:45;;;;;;;12.50;8.93;;;;;;;23.27;53.03;100357.09;1733753;82;25984;-63
2021/06/20 04:11:11;;;;;;;12.05;8.23;;;;;;;23.33;53.06;100352.87;1731624;81;25812;-63
2021/06/20 04:13:37;;;;;;;15.68;9.40;;;;;;;23.36;53.07;100364.88;1724285;81;25790;-64
2021/06/20 04:16:05;;;;;;;12.47;9.38;;;;;;;23.38;53.16;100364.72;1733266;81;27475;-63
2021/06/20 04:18:31;;;;;;;14.15;9.23;;;;;;;23.41;53.19;100363.87;1724340;81;25755;-64
2021/06/20 04:20:56;;;;;;;18.73;9.33;;;;;;;23.48;53.28;100371.80;1729584;82;25821;-63
2021/06/20 04:23:22;;;;;;;16.32;9.58;;;;;;;23.53;53.28;100370.83;1729550;82;25898;-63
2021/06/20 04:25:48;;;;;;;11.12;9.03;;;;;;;23.57;53.28;100377.73;1730466;81;25747;-63
2021/06/20 04:28:16;;;;;;;12.53;8.73;;;;;;;23.61;53.29;100385.13;1719634;82;27436;-63
2021/06/20 04:30:43;;;;;;;12.00;9.03;;;;;;;23.61;53.27;100379.14;1721613;81;25797;-64
2021/06/20 04:33:11;;;;;;;12.95;9.85;;;;;;;23.64;53.34;100380.20;1732354;81;25795;-63
2021/06/20 04:35:36;;;;;;;10.82;9.68;;;;;;;23.63;53.33;100381.22;1728805;81;25732;-64
2021/06/20 04:38:02;;;;;;;13.88;9.20;;;;;;;23.65;53.36;100383.80;1724100;80;25757;-63
2021/06/20 04:40:28;;;;;;;15.32;9.33;;;;;;;23.68;53.40;100389.46;1749988;80;28086;-64
2021/06/20 04:42:57;;;;;;;17.40;9.63;;;;;;;23.69;53.39;100390.67;1746763;80;25974;-63
2021/06/20 04:45:22;;;;;;;13.48;9.75;;;;;;;23.70;53.44;100397.86;1742703;80;26347;-64
2021/06/20 04:47:51;;;;;;;13.08;8.75;;;;;;;23.72;53.42;100387.62;1740031;80;26083;-64
2021/06/20 04:50:17;;;;;;;12.65;8.38;;;;;;;23.72;53.43;100395.83;1737882;80;25913;-64
2021/06/20 04:52:43;;;;;;;11.63;8.93;;;;;;;23.74;53.48;100391.57;1734864;80;27383;-63
2021/06/20 04:55:11;;;;;;;13.53;9.48;;;;;;;23.78;53.49;100392.97;1743794;80;25848;-64
2021/06/20 04:57:38;;;;;;;13.43;9.08;;;;;;;23.81;53.50;100395.40;1744931;80;25714;-64
2021/06/20 05:00:07;;;;;;;13.58;8.48;;;;;;;23.86;53.52;100396.64;1741722;80;25849;-64
2021/06/20 05:02:33;;;;;;;10.28;8.90;;;;;;;23.89;53.42;100387.26;1743983;80;25757;-64
2021/06/20 05:05:01;;;;;;;14.45;8.50;;;;;;;23.92;53.45;100385.57;1737004;80;26453;-64
2021/06/20 05:07:30;;;;;;;14.40;8.23;;;;;;;24.02;53.39;100383.59;1743126;80;25790;-64
2021/06/20 05:09:57;;;;;;;8.68;7.85;;;;;;;24.02;53.39;100383.59;1742239;80;25734;-62
2021/06/20 05:12:23;;;;;;;13.72;8.38;;;;;;;24.06;53.41;100385.00;1745175;80;25717;-62
2021/06/20 05:14:51;;;;;;;13.38;8.50;;;;;;;24.10;53.40;100387.77;1742606;80;25765;-62
2021/06/20 05:17:20;;;;;;;13.68;8.25;;;;;;;24.16;53.37;100392.61;1738620;80;27379;-63
2021/06/20 05:19:46;;;;;;;10.25;8.05;;;;;;;24.21;53.33;100388.02;1744951;80;25929;-62
2021/06/20 05:22:13;;;;;;;11.15;7.90;;;;;;;24.27;53.30;100390.15;1742576;80;25729;-63
2021/06/20 05:24:41;;;;;;;12.73;8.45;;;;;;;24.30;53.28;100391.20;1733109;80;25817;-63
2021/06/20 05:27:09;;;;;;;18.77;7.92;;;;;;;24.17;53.25;100360.09;1744549;80;25863;-63
2021/06/20 05:29:37;;;;;;;9.53;8.00;;;;;;;24.42;53.22;100389.05;1743704;80;28103;-62
2021/06/20 05:32:04;;;;;;;10.03;7.67;;;;;;;24.45;53.17;100385.47;1730687;80;26502;-62
2021/06/20 05:34:30;;;;;;;15.53;8.43;;;;;;;24.50;53.14;100388.58;1743556;80;25698;-62
2021/06/20 05:36:55;;;;;;;14.60;8.25;;;;;;;24.56;53.10;100382.97;1731821;80;25800;-63
2021/06/20 05:39:25;;;;;;;9.03;7.75;;;;;;;24.63;53.09;100385.91;1730744;80;25892;-62
2021/06/20 05:41:50;;;;;;;12.35;8.60;;;;;;;24.66;52.99;100384.22;1730984;80;27384;-62
2021/06/20 05:46:59;;;;;;;13.15;7.78;;;;;;;24.80;52.88;100388.57;1860449;74;25627;-63
2021/06/20 05:49:26;;;;;;;15.38;8.38;;;;;;;24.80;52.80;100394.05;1807412;77;26414;-62
2021/06/20 05:51:52;;;;;;;11.45;7.85;;;;;;;24.84;52.72;100392.70;1808239;77;29573;-63
2021/06/20 05:54:20;;;;;;;16.45;7.85;;;;;;;24.90;52.64;100387.07;1743143;80;25745;-63
2021/06/20 05:56:46;;;;;;;10.53;7.25;;;;;;;24.97;52.55;100381.82;1759203;79;25824;-62
2021/06/20 05:59:11;;;;;;;14.47;7.62;;;;;;;24.79;52.43;100342.14;1760430;79;27064;-63
2021/06/20 06:01:37;;;;;;;12.40;7.30;;;;;;;25.06;52.38;100386.31;1768105;79;25819;-63
2021/06/20 06:04:04;;;;;;;13.08;8.18;;;;;;;25.11;52.28;100390.27;1755858;79;29627;-63
2021/06/20 06:06:32;;;;;;;12.23;6.92;;;;;;;25.15;52.21;100389.42;1736252;80;25739;-62
2021/06/20 06:09:00;;;;;;;9.83;7.40;;;;;;;25.19;52.15;100391.67;1754248;79;26143;-62
2021/06/20 06:11:26;;;;;;;9.85;7.17;;;;;;;25.27;52.07;100384.49;1754666;79;25772;-62
2021/06/20 06:13:55;;;;;;;8.88;6.97;;;;;;;25.34;51.97;100385.02;1742967;79;25763;-62
2021/06/20 06:16:21;;;;;;;7.87;6.85;;;;;;;25.41;51.86;100381.09;1744250;81;27524;-63
2021/06/20 06:18:47;;;;;;;14.40;6.55;;;;;;;25.47;51.76;100379.91;1733013;79;26474;-61
2021/06/20 06:21:14;;;;;;;13.93;7.30;;;;;;;25.53;51.64;100381.98;1764085;79;25774;-62
2021/06/20 06:23:42;;;;;;;10.15;6.37;;;;;;;25.60;51.56;100370.31;1735855;80;25952;-62
2021/06/20 06:26:08;;;;;;;11.83;6.55;;;;;;;25.66;51.47;100371.05;1754709;79;25686;-62
2021/06/20 06:28:36;;;;;;;10.05;6.78;;;;;;;25.72;51.36;100371.22;1743908;80;27421;-62
2021/06/20 06:31:02;;;;;;;11.00;6.60;;;;;;;25.79;51.24;100370.88;1734964;79;26433;-62
2021/06/20 06:33:30;;;;;;;10.70;6.80;;;;;;;25.87;51.12;100375.52;1764235;79;25689;-62
2021/06/20 06:35:56;;;;;;;12.58;6.62;;;;;;;25.95;51.02;100378.77;1741657;79;25792;-61
2021/06/20 06:38:22;;;;;;;8.53;6.30;;;;;;;26.02;50.91;100374.28;1744710;79;25843;-62
2021/06/20 06:40:48;;;;;;;10.30;6.35;;;;;;;26.10;50.78;100372.38;1738625;80;29445;-62
2021/06/20 06:43:14;;;;;;;11.48;6.65;;;;;;;26.17;50.64;100371.17;1741495;79;25751;-63
2021/06/20 06:45:41;;;;;;;11.48;6.45;;;;;;;26.23;50.52;100373.73;1772193;78;26250;-63
2021/06/20 06:48:07;;;;;;;9.15;6.37;;;;;;;26.28;50.42;100367.20;1772350;78;25811;-62
2021/06/20 06:50:35;;;;;;;11.40;6.67;;;;;;;26.33;50.32;100359.33;1772917;78;25747;-63
2021/06/20 06:53:03;;;;;;;11.12;7.05;;;;;;;26.39;50.20;100347.64;1773472;78;28114;-63
2021/06/20 06:55:30;;;;;;;7.92;6.00;;;;;;;26.44;50.07;100338.34;1783870;80;25727;-62
2021/06/20 06:57:59;;;;;;;14.58;7.12;;;;;;;26.51;49.97;100328.36;1785344;78;25753;-64
2021/06/20 07:00:25;;;;;;;8.75;6.50;;;;;;;26.57;49.84;100319.41;1781614;78;26428;-63
2021/06/20 07:02:53;;;;;;;14.68;6.25;;;;;;;26.66;49.76;100316.96;1771652;78;25714;-63
2021/06/20 07:05:19;;;;;;;12.75;10.30;;;;;;;26.73;49.64;100312.47;1775106;78;28120;-62
2021/06/20 07:07:46;;;;;;;8.63;7.25;;;;;;;26.83;49.53;100314.48;1779370;78;25926;-63
2021/06/20 07:10:13;;;;;;;10.40;6.45;;;;;;;26.89;49.40;100317.03;1778122;78;25782;-63
2021/06/20 07:12:39;;;;;;;6.90;6.17;;;;;;;26.96;49.26;100318.02;1781961;79;26417;-63
2021/06/20 07:15:07;;;;;;;7.72;5.97;;;;;;;27.04;49.10;100319.91;1765460;78;27915;-62
2021/06/20 07:17:34;;;;;;;9.58;6.12;;;;;;;27.11;48.97;100321.75;1775562;78;25742;-63
2021/06/20 07:20:02;;;;;;;12.63;6.62;;;;;;;27.16;48.83;100324.81;1767547;78;25938;-63
2021/06/20 07:22:29;;;;;;;17.67;13.22;;;;;;;27.23;48.70;100326.32;1780113;78;25776;-63
2021/06/20 07:24:55;;;;;;;17.62;9.68;;;;;;;27.27;48.56;100330.42;1784164;78;26882;-63
2021/06/20 07:27:22;;;;;;;8.80;6.90;;;;;;;27.33;48.46;100329.70;1765165;78;26330;-63
2021/06/20 07:29:52;;;;;;;6.65;5.75;;;;;;;27.39;48.33;100316.58;1771964;78;27390;-63
2021/06/20 07:32:19;;;;;;;10.00;6.30;;;;;;;27.45;48.23;100329.61;1769284;78;25753;-63
2021/06/20 07:34:45;;;;;;;7.10;6.40;;;;;;;27.53;48.10;100331.97;1763201;79;26016;-63
2021/06/20 07:37:12;;;;;;;13.88;5.75;;;;;;;27.58;47.93;100333.64;1772072;78;25732;-63
2021/06/20 07:39:37;;;;;;;9.75;5.87;;;;;;;27.61;47.82;100327.28;1781211;78;25840;-63
2021/06/20 07:42:06;;;;;;;11.73;6.22;;;;;;;27.68;47.69;100337.04;1761641;78;27388;-63
2021/06/20 07:44:32;;;;;;;8.23;6.10;;;;;;;27.72;47.60;100324.62;1775605;78;25722;-63
2021/06/20 07:46:57;;;;;;;14.38;6.37;;;;;;;27.79;47.52;100327.82;1773450;78;25732;-62
2021/06/20 07:49:24;;;;;;;17.92;6.17;;;;;;;27.86;47.42;100323.80;1775599;78;25757;-62
2021/06/20 07:51:51;;;;;;;12.35;5.78;;;;;;;27.95;47.37;100319.07;1761288;78;25782;-63
2021/06/20 07:54:19;;;;;;;13.95;6.17;;;;;;;28.02;47.24;100311.25;1763199;78;26892;-62
2021/06/20 07:56:47;;;;;;;6.20;5.53;;;;;;;28.08;47.14;100311.02;1779409;78;25738;-63
2021/06/20 07:59:13;;;;;;;16.62;12.50;;;;;;;28.13;47.06;100308.03;1764919;78;25745;-63
2021/06/20 08:01:40;;;;;;;10.30;6.55;;;;;;;28.20;46.96;100315.55;1764879;78;25842;-63
2021/06/20 08:04:06;;;;;;;10.90;5.33;;;;;;;28.26;46.87;100307.94;1769440;78;25852;-63
2021/06/20 08:06:32;;;;;;;8.43;5.35;;;;;;;28.31;46.72;100312.36;1763806;78;28085;-63
2021/06/20 08:09:02;;;;;;;6.50;5.83;;;;;;;28.37;46.60;100304.19;1768051;78;25875;-63
2021/06/20 08:11:28;;;;;;;12.93;5.95;;;;;;;28.44;46.48;100313.94;1764461;78;25756;-63
2021/06/20 08:13:57;;;;;;;13.80;5.70;;;;;;;28.49;46.27;100310.61;1772080;78;25789;-63
2021/06/20 08:16:24;;;;;;;11.25;5.70;;;;;;;28.51;46.19;100307.98;1745657;80;25786;-62
2021/06/20 08:18:52;;;;;;;11.18;6.05;;;;;;;28.58;46.13;100308.08;1742910;80;27465;-63
2021/06/20 08:21:19;;;;;;;12.03;5.78;;;;;;;28.66;46.03;100308.80;1764517;78;26504;-63
2021/06/20 08:23:46;;;;;;;12.35;5.80;;;;;;;28.72;45.93;100309.41;1753774;79;25815;-63
2021/06/20 08:26:14;;;;;;;10.90;6.37;;;;;;;28.80;45.87;100297.42;1773827;79;26400;-63
2021/06/20 08:28:40;;;;;;;12.53;5.42;;;;;;;28.90;45.68;100293.86;1766692;79;25656;-63
2021/06/20 08:31:06;;;;;;;10.25;5.45;;;;;;;28.95;45.44;100298.80;1752143;80;27534;-63
2021/06/20 08:33:31;;;;;;;7.58;5.30;;;;;;;28.96;45.27;100295.84;1746175;80;27305;-63
2021/06/20 08:35:58;;;;;;;10.23;5.12;;;;;;;28.99;45.21;100294.61;1734099;80;25885;-63
2021/06/20 08:38:23;;;;;;;6.50;4.87;;;;;;;29.10;45.12;100294.09;1741792;80;25930;-63
2021/06/20 08:40:52;;;;;;;9.98;5.20;;;;;;;29.18;44.96;100291.22;1737820;80;25801;-63
2021/06/20 08:43:19;;;;;;;11.68;4.97;;;;;;;29.13;44.83;100268.02;1739283;80;28295;-63
2021/06/20 08:45:52;;;;;;;9.10;5.28;;;;;;;29.32;44.69;100295.83;1738530;80;25900;-63
2021/06/20 08:48:21;;;;;;;5.83;4.78;;;;;;;29.41;44.51;100290.50;1773671;78;25853;-63
2021/06/20 08:50:52;;;;;;;6.75;4.95;;;;;;;29.46;44.31;100292.70;1743163;80;25782;-62
2021/06/20 08:53:22;;;;;;;8.60;4.62;;;;;;;29.51;44.25;100287.97;1755838;80;25786;-63
2021/06/20 08:55:50;;;;;;;13.77;5.57;;;;;;;29.58;44.09;100283.36;1776200;78;27365;-63
2021/06/20 08:58:22;;;;;;;5.75;4.30;;;;;;;29.65;43.94;100289.80;1760628;78;27308;-63
2021/06/20 09:00:49;;;;;;;9.08;5.17;;;;;;;29.70;43.77;100275.72;1776677;78;25686;-62
2021/06/20 09:03:15;;;;;;;14.43;7.30;;;;;;;29.72;43.52;100273.62;1743210;80;25882;-63
2021/06/20 09:06:04;;;;;;;10.65;5.42;;;;;;;29.73;43.49;100272.56;1739978;80;25749;-62
2021/06/20 09:08:30;;;;;;;7.10;4.40;;;;;;;29.81;43.43;100272.09;1747226;80;27401;-63
2021/06/20 09:10:58;;;;;;;11.43;4.90;;;;;;;29.92;43.30;100265.48;1762484;79;25847;-63
2021/06/20 09:13:35;;;;;;;9.28;4.45;;;;;;;29.94;43.03;100270.81;1768205;79;25789;-62
2021/06/20 09:16:05;;;;;;;9.53;4.60;;;;;;;29.95;42.92;100260.94;1756619;79;25769;-62
2021/06/20 09:18:34;;;;;;;16.62;5.08;;;;;;;30.06;42.85;100265.61;1745650;79;25891;-63
2021/06/20 09:21:12;;;;;;;7.15;4.08;;;;;;;30.13;42.64;100261.84;1751468;79;27428;-63
2021/06/20 09:23:44;;;;;;;13.35;5.28;;;;;;;30.22;42.41;100261.15;1754659;79;25815;-62
2021/06/20 09:26:12;;;;;;;6.30;4.12;;;;;;;30.25;42.16;100260.73;1759996;79;25680;-63
2021/06/20 09:28:38;;;;;;;7.90;3.77;;;;;;;30.30;41.96;100257.69;1753701;79;25849;-61
2021/06/20 09:31:07;;;;;;;11.88;4.33;;;;;;;30.35;41.75;100263.46;1755950;79;25746;-63
2021/06/20 09:33:36;;;;;;;19.92;8.30;;;;;;;30.35;41.50;100260.70;1759899;79;27479;-62
2021/06/20 09:36:05;;;;;;;7.95;4.70;;;;;;;30.39;41.34;100270.83;1767821;78;25701;-62
2021/06/20 09:38:36;;;;;;;6.72;4.35;;;;;;;30.44;41.16;100261.38;1776071;78;25917;-63
2021/06/20 09:41:14;;;;;;;7.97;3.95;;;;;;;30.48;40.96;100251.62;1778752;78;25741;-64
2021/06/20 09:43:57;;;;;;;11.22;3.98;;;;;;;30.52;40.79;100251.53;1766969;78;25782;-63
2021/06/20 09:46:25;;;;;;;8.73;4.72;;;;;;;30.56;40.47;100247.83;1778953;78;28166;-63
2021/06/20 09:48:54;;;;;;;9.15;3.50;;;;;;;30.64;40.39;100248.53;1749895;79;25726;-63
2021/06/20 09:51:30;;;;;;;7.50;4.33;;;;;;;30.74;40.21;100248.67;1745481;79;25759;-63
2021/06/20 09:53:56;;;;;;;7.00;3.77;;;;;;;30.80;40.03;100234.02;1732874;79;26365;-63
2021/06/20 09:56:29;;;;;;;10.23;3.30;;;;;;;30.89;39.81;100229.47;1756841;79;25707;-64
2021/06/20 09:58:59;;;;;;;9.53;3.02;;;;;;;30.97;39.63;100232.57;1748583;80;27457;-64
2021/06/20 10:01:28;;;;;;;9.15;3.35;;;;;;;31.05;39.45;100232.38;1733121;79;26278;-64
2021/06/20 10:03:56;;;;;;;9.15;3.65;;;;;;;31.12;39.16;100224.94;1757599;80;26482;-63
2021/06/20 10:06:22;;;;;;;8.90;4.08;;;;;;;31.19;38.89;100223.60;1736504;80;25844;-63
2021/06/20 10:08:49;;;;;;;9.08;6.05;;;;;;;31.21;38.69;100219.52;1763797;79;25948;-61
2021/06/20 10:11:18;;;;;;;13.13;3.60;;;;;;;31.25;38.51;100219.42;1734117;80;27533;-62
2021/06/20 10:13:45;;;;;;;7.22;3.15;;;;;;;31.32;38.35;100224.97;1726869;80;26123;-62
2021/06/20 10:16:22;;;;;;;6.95;3.50;;;;;;;31.39;38.09;100234.14;1741451;79;26002;-63
2021/06/20 10:19:02;;;;;;;3.35;2.92;;;;;;;31.48;37.89;100230.63;1749763;79;25916;-63
2021/06/20 10:21:38;;;;;;;7.60;3.27;;;;;;;31.52;37.64;100231.38;1745780;80;25864;-62
2021/06/20 10:24:19;;;;;;;6.47;3.58;;;;;;;31.63;37.25;100231.27;1750503;79;27239;-63
2021/06/20 10:27:03;;;;;;;10.40;3.80;;;;;;;31.69;37.15;100228.21;1757764;79;27190;-63
2021/06/20 10:29:40;;;;;;;22.90;5.75;;;;;;;31.81;37.08;100221.80;1762262;79;26465;-61
2021/06/20 10:32:17;;;;;;;13.43;4.70;;;;;;;31.95;36.82;100220.72;1765926;79;25686;-62
2021/06/20 10:35:00;;;;;;;5.50;4.25;;;;;;;32.06;36.66;100233.60;1770254;79;25925;-63
2021/06/20 10:37:31;;;;;;;12.40;3.50;;;;;;;32.13;36.48;100221.43;1746225;79;27494;-62
2021/06/20 10:40:00;;;;;;;4.40;3.62;;;;;;;32.21;36.25;100222.58;1736885;79;25997;-62
2021/06/20 10:42:39;;;;;;;11.65;3.25;;;;;;;32.32;36.20;100212.77;1745917;80;25774;-63
2021/06/20 10:45:10;;;;;;;6.65;3.42;;;;;;;32.44;36.01;100215.18;1740247;79;25707;-63
2021/06/20 10:47:43;;;;;;;9.75;3.22;;;;;;;32.55;35.82;100213.64;1740888;80;26358;-62
2021/06/20 10:50:13;;;;;;;4.17;2.95;;;;;;;32.70;35.62;100218.91;1740410;80;25857;-62
2021/06/20 10:52:40;;;;;;;;;;;;;;;32.80;35.38;100204.05;1735676;79;26405;-61
2021/06/20 10:55:11;;;;;;;8.03;3.77;;;;;;;32.90;35.07;100212.75;1746298;79;25915;-63
2021/06/20 10:57:57;;;;;;;6.72;3.20;;;;;;;32.85;34.79;100201.46;1742153;79;26326;-63
2021/06/20 11:00:33;;;;;;;5.95;2.92;;;;;;;32.88;34.79;100203.80;1738390;80;25785;-64
2021/06/20 11:03:27;;;;;;;9.43;3.20;;;;;;;33.00;34.69;100203.94;1738164;80;28127;-62
2021/06/20 11:06:11;;;;;;;6.47;2.85;;;;;;;33.10;34.48;100200.98;1731501;80;26363;-60
2021/06/20 11:08:54;;;;;;;10.18;3.30;;;;;;;33.19;34.41;100203.80;1738197;80;25679;-63
2021/06/20 11:11:24;;;;;;;4.83;3.15;;;;;;;33.36;34.23;100203.28;1742186;80;25805;-63
2021/06/20 11:14:01;;;;;;;11.60;3.17;;;;;;;33.40;33.81;100194.81;1748124;79;25856;-63
2021/06/20 11:16:41;;;;;;;13.65;3.22;;;;;;;33.44;33.62;100197.45;1732013;80;27470;-61
2021/06/20 11:19:26;;;;;;;4.00;2.90;;;;;;;33.59;33.56;100201.28;1741234;79;25653;-61
2021/06/20 11:22:05;;;;;;;6.45;3.25;;;;;;;33.72;33.25;100194.20;1746898;79;25762;-61
2021/06/20 11:24:35;;;;;;;5.28;3.08;;;;;;;33.79;33.16;100192.22;1736920;79;25770;-65
2021/06/20 11:27:06;;;;;;;15.03;3.07;;;;;;;33.93;33.03;100188.77;1743534;80;25790;-62
2021/06/20 11:29:42;;;;;;;21.77;4.22;;;;;;;34.11;32.76;100185.45;1752175;80;27396;-62